Time;durP1;ratioP1;P1;durP2;ratioP2;P2;SDS_P1;SDS_P2;PMS_P1;PMS_P2;Temp;Humidity;BMP_temperature;BMP_pressure;BME280_temperature;BME280_humidity;BME280_pressure;Samples;Min_cycle;Max_cycle;Signal;HPM_P1;HPM_P2
2021/05/27 00:01:23;;;;;;;1.47;1.37;;;8.30;99.90;;;;;;5012158;28;20216;-60
2021/05/27 00:03:48;;;;;;;1.00;1.00;;;8.30;99.90;;;;;;5033048;28;20245;-59
2021/05/27 00:06:14;;;;;;;2.60;1.30;;;8.30;99.90;;;;;;5018813;28;20248;-59
2021/05/27 00:08:40;;;;;;;1.20;1.00;;;8.30;99.90;;;;;;5049947;28;20433;-59
2021/05/27 00:11:08;;;;;;;1.07;1.07;;;8.30;99.90;;;;;;5051280;28;20635;-60
2021/05/27 00:13:34;;;;;;;1.20;1.10;;;8.30;99.90;;;;;;5047652;28;20179;-60
2021/05/27 00:16:00;;;;;;;1.37;1.27;;;8.20;99.90;;;;;;5050753;28;20432;-59
2021/05/27 00:18:26;;;;;;;1.30;1.20;;;8.20;99.90;;;;;;5052811;28;20175;-59
2021/05/27 00:20:51;;;;;;;1.20;1.10;;;8.20;99.90;;;;;;5053406;28;20183;-60
2021/05/27 00:23:17;;;;;;;1.20;1.10;;;8.20;99.90;;;;;;5039942;28;20529;-59
2021/05/27 00:25:43;;;;;;;1.30;1.30;;;8.10;99.90;;;;;;5049098;28;20223;-59
2021/05/27 00:28:09;;;;;;;1.10;1.10;;;8.20;99.90;;;;;;5053540;28;20221;-59
2021/05/27 00:30:34;;;;;;;1.20;1.10;;;8.20;99.90;;;;;;5040753;28;20172;-59
2021/05/27 00:33:00;;;;;;;1.13;1.13;;;8.20;99.90;;;;;;5032463;28;20223;-59
2021/05/27 00:35:25;;;;;;;1.30;1.20;;;8.20;99.90;;;;;;5017639;28;20178;-59
2021/05/27 00:37:51;;;;;;;1.13;1.10;;;8.20;99.90;;;;;;5053119;28;20179;-60
2021/05/27 00:40:17;;;;;;;4.33;1.07;;;8.10;99.90;;;;;;5052214;28;20537;-60
2021/05/27 00:42:44;;;;;;;1.10;1.10;;;8.10;99.90;;;;;;5039465;28;20207;-60
2021/05/27 00:45:12;;;;;;;1.27;1.20;;;8.10;99.90;;;;;;5056991;28;20536;-60
2021/05/27 00:47:39;;;;;;;1.20;1.07;;;8.10;99.90;;;;;;5057483;28;20413;-60
2021/05/27 00:50:07;;;;;;;1.03;0.93;;;8.10;99.90;;;;;;5058288;28;20879;-60
2021/05/27 00:52:33;;;;;;;1.40;1.30;;;8.10;99.90;;;;;;5041116;28;20807;-59
2021/05/27 00:55:00;;;;;;;1.60;1.20;;;8.10;99.90;;;;;;5040131;28;20977;-59
2021/05/27 00:57:34;;;;;;;1.03;1.00;;;8.10;99.90;;;;;;5023759;28;20184;-59
2021/05/27 01:00:04;;;;;;;2.63;1.20;;;8.10;99.90;;;;;;5037848;28;20512;-59
2021/05/27 01:02:29;;;;;;;0.83;0.83;;;8.10;99.90;;;;;;5051149;28;20527;-59
2021/05/27 01:04:55;;;;;;;1.50;1.40;;;8.10;99.90;;;;;;5043385;28;20457;-60
2021/05/27 01:07:22;;;;;;;1.00;1.00;;;8.00;99.90;;;;;;5024835;28;20677;-59
2021/05/27 01:09:48;;;;;;;0.90;0.90;;;8.00;99.90;;;;;;5048115;28;20195;-60
2021/05/27 01:12:14;;;;;;;1.20;1.10;;;8.00;99.90;;;;;;5021803;28;20469;-60
2021/05/27 01:17:24;;;;;;;1.27;1.17;;;8.00;99.90;;;;;;5047270;28;20178;-59
2021/05/27 01:19:51;;;;;;;1.10;1.00;;;8.00;99.90;;;;;;5046857;28;20423;-59
2021/05/27 01:22:18;;;;;;;1.30;1.20;;;7.90;99.90;;;;;;5042021;28;20204;-59
2021/05/27 01:24:44;;;;;;;1.03;0.90;;;7.90;99.90;;;;;;5013830;28;20907;-59
2021/05/27 01:27:10;;;;;;;1.00;1.00;;;7.90;99.90;;;;;;5014049;28;20484;-59
2021/05/27 01:29:35;;;;;;;0.90;0.90;;;7.90;99.90;;;;;;5023330;28;20172;-59
2021/05/27 01:32:01;;;;;;;1.20;1.10;;;7.90;99.90;;;;;;5013797;28;20184;-60
2021/05/27 01:34:26;;;;;;;1.37;1.27;;;7.90;99.90;;;;;;5047438;28;20175;-59
2021/05/27 01:36:52;;;;;;;0.90;0.90;;;7.90;99.90;;;;;;5044220;28;20667;-60
2021/05/27 01:39:18;;;;;;;0.90;0.90;;;7.90;99.90;;;;;;5027158;28;20211;-59
2021/05/27 01:41:43;;;;;;;1.10;1.10;;;7.90;99.90;;;;;;5047231;28;20297;-59
2021/05/27 01:44:09;;;;;;;3.87;1.10;;;7.90;99.90;;;;;;5027880;28;20171;-59
2021/05/27 01:46:35;;;;;;;1.00;1.00;;;7.90;99.90;;;;;;5049193;28;20207;-59
2021/05/27 01:49:02;;;;;;;0.93;0.93;;;7.90;99.90;;;;;;5051303;28;20164;-59
2021/05/27 01:51:27;;;;;;;1.27;1.17;;;7.90;99.90;;;;;;5035720;28;20198;-60
2021/05/27 01:53:53;;;;;;;1.30;1.20;;;7.90;99.90;;;;;;5048571;28;20422;-60
2021/05/27 01:56:19;;;;;;;1.60;1.50;;;7.90;99.90;;;;;;5039612;28;20272;-60
2021/05/27 01:58:47;;;;;;;1.30;1.20;;;7.90;99.90;;;;;;5039948;28;20179;-59
2021/05/27 02:01:13;;;;;;;1.50;1.40;;;7.90;99.90;;;;;;5047005;28;20229;-60
2021/05/27 02:03:39;;;;;;;1.70;1.60;;;7.90;99.90;;;;;;5043137;28;20434;-60
2021/05/27 02:06:04;;;;;;;1.40;1.30;;;7.90;99.90;;;;;;5049936;28;20687;-59
2021/05/27 02:08:30;;;;;;;1.80;1.60;;;7.90;99.90;;;;;;5026812;28;20254;-59
2021/05/27 02:10:55;;;;;;;2.07;1.97;;;7.90;99.90;;;;;;5049987;28;20254;-58
2021/05/27 02:13:22;;;;;;;1.70;1.60;;;7.90;99.90;;;;;;5044502;28;20221;-60
2021/05/27 02:15:48;;;;;;;1.97;1.83;;;7.90;99.90;;;;;;5041436;28;20182;-59
2021/05/27 02:18:14;;;;;;;1.33;1.30;;;7.90;99.90;;;;;;5057038;28;20422;-59
2021/05/27 02:20:39;;;;;;;3.63;1.30;;;7.90;99.90;;;;;;5049089;28;20179;-59
2021/05/27 02:23:05;;;;;;;1.40;1.30;;;7.90;99.90;;;;;;5033368;28;20594;-58
2021/05/27 02:25:31;;;;;;;1.90;1.30;;;7.90;99.90;;;;;;5024230;28;20195;-60
2021/05/27 02:27:57;;;;;;;1.80;1.20;;;7.90;99.90;;;;;;5051024;28;20402;-59
2021/05/27 02:30:24;;;;;;;1.10;1.00;;;7.80;99.90;;;;;;5037989;28;20184;-59
2021/05/27 02:32:50;;;;;;;1.10;1.10;;;7.80;99.90;;;;;;5012986;28;20583;-60
2021/05/27 02:35:16;;;;;;;1.57;1.13;;;7.80;99.90;;;;;;5039781;28;20516;-60
2021/05/27 02:37:41;;;;;;;1.30;1.20;;;7.80;99.90;;;;;;5047743;28;20228;-59
2021/05/27 02:40:07;;;;;;;1.50;1.40;;;7.80;99.90;;;;;;5039192;28;20168;-59
2021/05/27 02:42:33;;;;;;;1.30;1.20;;;7.90;99.90;;;;;;5031232;28;20234;-59
2021/05/27 02:44:59;;;;;;;1.30;1.27;;;7.90;99.90;;;;;;5024192;28;20486;-59
2021/05/27 02:47:25;;;;;;;1.47;1.37;;;7.80;99.90;;;;;;5046172;28;20171;-59
2021/05/27 02:49:51;;;;;;;1.40;1.30;;;7.80;99.90;;;;;;5039877;28;20536;-60
2021/05/27 02:52:16;;;;;;;1.73;1.63;;;7.80;99.90;;;;;;5035032;28;20224;-59
2021/05/27 02:54:42;;;;;;;1.40;1.30;;;7.80;99.90;;;;;;5043786;28;20176;-60
2021/05/27 02:57:07;;;;;;;1.50;1.40;;;7.80;99.90;;;;;;5050260;28;20644;-59
2021/05/27 02:59:33;;;;;;;1.30;1.20;;;7.80;99.90;;;;;;5038845;28;20171;-59
2021/05/27 03:01:59;;;;;;;1.30;1.20;;;7.80;99.90;;;;;;5029177;28;20720;-59
2021/05/27 03:04:24;;;;;;;1.30;1.20;;;7.80;99.90;;;;;;5043160;28;20175;-59
2021/05/27 03:06:52;;;;;;;1.37;1.27;;;7.80;99.90;;;;;;5039497;28;20195;-60
2021/05/27 03:09:18;;;;;;;1.30;1.20;;;7.80;99.90;;;;;;5042734;28;20584;-60
2021/05/27 03:11:44;;;;;;;1.30;1.20;;;7.80;99.90;;;;;;5046066;28;20546;-59
2021/05/27 03:14:10;;;;;;;1.00;1.00;;;7.80;99.90;;;;;;5032143;28;20164;-60
2021/05/27 03:16:35;;;;;;;2.70;1.40;;;7.80;99.90;;;;;;5034441;28;20555;-60
2021/05/27 03:19:03;;;;;;;1.60;1.50;;;7.70;99.90;;;;;;5030374;28;20168;-59
2021/05/27 03:21:29;;;;;;;2.67;2.10;;;7.80;99.90;;;;;;5019582;28;20746;-59
2021/05/27 03:23:54;;;;;;;3.13;1.60;;;7.70;99.90;;;;;;5046047;28;20433;-60
2021/05/27 03:26:20;;;;;;;2.77;1.63;;;7.70;99.90;;;;;;5034753;28;20683;-59
2021/05/27 03:28:46;;;;;;;1.80;1.70;;;7.70;99.90;;;;;;5029666;28;20551;-60
2021/05/27 03:31:12;;;;;;;1.33;1.23;;;7.70;99.90;;;;;;5033769;28;20167;-59
2021/05/27 03:33:40;;;;;;;1.40;1.30;;;7.70;99.90;;;;;;5031508;28;20609;-59
2021/05/27 03:36:06;;;;;;;1.60;1.50;;;7.70;99.90;;;;;;5024343;28;20632;-60
2021/05/27 03:38:32;;;;;;;1.67;1.43;;;7.70;99.90;;;;;;5046000;28;20934;-60
2021/05/27 03:40:58;;;;;;;1.23;1.13;;;7.70;99.90;;;;;;5041472;28;21704;-60
2021/05/27 03:43:23;;;;;;;1.73;1.53;;;7.70;99.90;;;;;;5025505;28;20191;-59
2021/05/27 03:45:49;;;;;;;1.70;1.60;;;7.80;99.90;;;;;;5034176;28;20249;-60
2021/05/27 03:48:14;;;;;;;1.60;1.50;;;7.80;99.90;;;;;;5035102;28;20167;-60
2021/05/27 03:50:40;;;;;;;1.57;1.47;;;7.70;99.90;;;;;;5017016;28;20186;-59
2021/05/27 03:53:07;;;;;;;2.17;1.27;;;7.70;99.90;;;;;;5033909;28;20207;-59
2021/05/27 03:55:33;;;;;;;1.63;1.53;;;7.70;99.90;;;;;;5051904;28;20187;-59
2021/05/27 03:57:59;;;;;;;2.30;1.60;;;7.70;99.90;;;;;;5032338;28;20409;-59
2021/05/27 04:00:45;;;;;;;2.10;1.40;;;7.70;99.90;;;;;;5043885;28;20171;-59
2021/05/27 04:03:12;;;;;;;1.63;1.53;;;7.70;99.90;;;;;;5047121;28;20246;-60
2021/05/27 04:08:23;;;;;;;1.90;1.80;;;7.70;99.90;;;;;;5046488;28;20510;-60
2021/05/27 04:10:49;;;;;;;2.40;1.67;;;7.60;99.90;;;;;;5029076;28;20619;-60
2021/05/27 04:13:15;;;;;;;1.80;1.70;;;7.60;99.90;;;;;;5050165;28;20483;-59
2021/05/27 04:15:42;;;;;;;1.80;1.70;;;7.60;99.90;;;;;;5045134;28;20425;-59
2021/05/27 04:18:16;;;;;;;2.10;1.70;;;7.60;99.90;;;;;;5033124;28;20401;-60
2021/05/27 04:20:46;;;;;;;3.63;1.90;;;7.60;99.90;;;;;;5045678;28;20425;-60
2021/05/27 04:23:15;;;;;;;1.60;1.50;;;7.60;99.90;;;;;;5047792;28;20437;-60
2021/05/27 04:25:41;;;;;;;2.67;1.90;;;7.60;99.90;;;;;;5050521;28;20457;-58
2021/05/27 04:28:08;;;;;;;2.07;1.60;;;7.60;99.90;;;;;;5047219;28;20422;-59
2021/05/27 04:31:08;;;;;;;1.67;1.57;;;7.60;99.90;;;;;;5047674;28;20442;-59
2021/05/27 04:33:21;;;;;;;1.80;1.70;;;7.60;99.90;;;;;;5043961;28;20935;-59
2021/05/27 04:35:47;;;;;;;2.20;2.00;;;7.60;99.90;;;;;;5039298;28;20497;-59
2021/05/27 04:38:17;;;;;;;2.63;1.73;;;7.60;99.90;;;;;;5048327;28;20822;-60
2021/05/27 04:40:47;;;;;;;1.90;1.57;;;7.50;99.90;;;;;;5042007;28;20348;-59
2021/05/27 04:43:15;;;;;;;5.97;1.70;;;7.60;99.90;;;;;;5044879;28;20602;-59
2021/05/27 04:45:41;;;;;;;2.07;1.87;;;7.60;99.90;;;;;;5038903;28;20446;-59
2021/05/27 04:48:10;;;;;;;3.00;1.80;;;7.60;99.90;;;;;;5037068;28;20456;-60
2021/05/27 04:50:37;;;;;;;1.70;1.60;;;7.60;99.90;;;;;;5039034;28;20294;-58
2021/05/27 04:53:02;;;;;;;1.67;1.57;;;7.60;99.90;;;;;;5044137;28;21019;-58
2021/05/27 04:55:28;;;;;;;2.07;1.97;;;7.60;99.90;;;;;;5040712;28;20422;-57
2021/05/27 04:57:54;;;;;;;2.43;1.87;;;7.60;99.90;;;;;;5046853;28;20210;-61
2021/05/27 05:00:23;;;;;;;2.00;1.90;;;7.60;99.90;;;;;;5019925;28;20207;-58
2021/05/27 05:02:50;;;;;;;2.63;1.97;;;7.60;99.90;;;;;;5029798;28;20202;-58
2021/05/27 05:05:16;;;;;;;1.97;1.70;;;7.70;99.90;;;;;;5032887;28;20499;-57
2021/05/27 05:07:42;;;;;;;1.70;1.60;;;7.70;99.90;;;;;;5041128;28;20469;-60
2021/05/27 05:10:10;;;;;;;5.40;1.70;;;7.70;99.90;;;;;;5038994;28;20180;-60
2021/05/27 05:12:46;;;;;;;2.10;1.90;;;7.70;99.90;;;;;;5042506;28;20449;-61
2021/05/27 05:15:22;;;;;;;3.33;2.03;;;7.70;99.90;;;;;;5043403;28;20453;-61
2021/05/27 05:17:51;;;;;;;2.10;1.90;;;7.70;99.90;;;;;;5021339;28;20418;-60
2021/05/27 05:20:25;;;;;;;2.03;1.90;;;7.70;99.90;;;;;;5046172;28;20436;-60
2021/05/27 05:22:51;;;;;;;2.60;1.97;;;7.70;99.90;;;;;;5047802;28;20449;-59
2021/05/27 05:25:17;;;;;;;1.60;1.50;;;7.70;99.90;;;;;;5026894;28;20496;-60
2021/05/27 05:27:43;;;;;;;2.40;1.83;;;7.70;99.90;;;;;;5046316;28;20417;-60
2021/05/27 05:30:10;;;;;;;2.60;2.00;;;7.70;99.90;;;;;;5035471;28;20434;-59
2021/05/27 05:32:36;;;;;;;3.40;1.93;;;7.70;99.90;;;;;;5019096;28;20457;-60
2021/05/27 05:35:03;;;;;;;3.90;1.93;;;7.70;99.90;;;;;;5042006;28;20503;-60
2021/05/27 05:37:29;;;;;;;2.30;2.00;;;7.80;99.90;;;;;;5036203;28;20267;-60
2021/05/27 05:39:55;;;;;;;4.00;1.80;;;7.80;99.90;;;;;;5038419;28;20525;-61
2021/05/27 05:42:20;;;;;;;2.10;1.90;;;7.80;99.90;;;;;;5039469;28;20238;-60
2021/05/27 05:44:46;;;;;;;2.30;2.10;;;7.80;99.90;;;;;;5049197;28;20344;-60
2021/05/27 05:47:12;;;;;;;4.63;2.50;;;7.80;99.90;;;;;;5022224;28;20175;-60
2021/05/27 05:49:38;;;;;;;3.07;2.70;;;7.80;99.90;;;;;;5048492;28;20554;-60
2021/05/27 05:52:04;;;;;;;4.93;3.00;;;7.80;99.90;;;;;;5048617;28;20279;-60
2021/05/27 05:54:29;;;;;;;3.10;2.40;;;7.80;99.90;;;;;;5038285;28;20179;-60
2021/05/27 05:56:55;;;;;;;1.90;1.80;;;7.80;99.90;;;;;;5047406;28;20433;-61
2021/05/27 05:59:21;;;;;;;2.30;2.10;;;7.80;99.90;;;;;;5049074;28;20237;-59
2021/05/27 06:01:46;;;;;;;2.33;2.13;;;7.80;99.90;;;;;;5030074;28;20761;-59
2021/05/27 06:04:12;;;;;;;2.67;2.20;;;7.90;99.90;;;;;;5048540;28;20228;-59
2021/05/27 06:06:38;;;;;;;2.17;1.93;;;7.90;99.90;;;;;;5042078;28;20195;-60
2021/05/27 06:09:04;;;;;;;2.30;2.10;;;7.90;99.90;;;;;;5037629;28;20255;-60
2021/05/27 06:11:29;;;;;;;6.30;1.80;;;7.90;99.90;;;;;;5022719;28;20199;-60
2021/05/27 06:13:56;;;;;;;2.10;1.90;;;7.90;99.90;;;;;;5036797;28;20985;-60
2021/05/27 06:16:21;;;;;;;2.23;2.03;;;8.00;99.90;;;;;;5042581;28;20229;-60
2021/05/27 06:18:47;;;;;;;2.53;2.00;;;8.00;99.90;;;;;;5031189;28;20407;-59
2021/05/27 06:21:13;;;;;;;5.30;2.03;;;8.00;99.90;;;;;;5040520;28;20221;-60
2021/05/27 06:23:39;;;;;;;2.07;1.77;;;8.00;99.90;;;;;;5041501;28;20186;-60
2021/05/27 06:26:05;;;;;;;1.80;1.70;;;8.00;99.90;;;;;;5045637;28;20965;-60
2021/05/27 06:28:30;;;;;;;1.60;1.50;;;8.00;99.90;;;;;;5042954;28;20640;-60
2021/05/27 06:30:56;;;;;;;1.90;1.80;;;8.00;99.90;;;;;;5019388;28;20659;-61
2021/05/27 06:33:23;;;;;;;2.57;2.30;;;8.00;99.90;;;;;;5043675;28;20183;-60
2021/05/27 06:35:48;;;;;;;1.80;1.70;;;8.00;99.90;;;;;;5032913;28;20423;-59
2021/05/27 06:38:15;;;;;;;2.17;1.97;;;8.00;99.90;;;;;;5043955;28;20446;-59
2021/05/27 06:40:41;;;;;;;2.03;1.60;;;8.00;99.90;;;;;;5021494;28;20189;-59
2021/05/27 06:43:07;;;;;;;2.80;2.20;;;8.00;99.90;;;;;;5045661;28;20489;-59
2021/05/27 06:45:33;;;;;;;3.73;1.90;;;8.00;99.90;;;;;;5038292;28;20493;-59
2021/05/27 06:47:58;;;;;;;4.60;2.50;;;8.00;99.90;;;;;;5039557;28;20441;-59
2021/05/27 06:50:39;;;;;;;1.90;1.80;;;8.00;99.90;;;;;;5041905;28;20429;-60
2021/05/27 06:53:06;;;;;;;3.17;2.37;;;8.00;99.90;;;;;;5029304;28;20194;-59
2021/05/27 06:55:36;;;;;;;5.10;2.30;;;8.10;99.90;;;;;;5045255;28;20933;-59
2021/05/27 06:58:03;;;;;;;7.73;3.90;;;8.10;99.90;;;;;;5041227;28;20449;-60
2021/05/27 07:00:29;;;;;;;6.97;2.30;;;8.10;99.90;;;;;;5035094;28;21097;-59
2021/05/27 07:02:56;;;;;;;5.33;3.43;;;8.10;99.90;;;;;;5041890;28;20957;-60
2021/05/27 07:05:22;;;;;;;15.07;5.50;;;8.10;99.90;;;;;;5034555;28;20465;-60
2021/05/27 07:07:48;;;;;;;7.90;4.97;;;8.10;99.90;;;;;;5036201;28;20480;-61
2021/05/27 07:10:16;;;;;;;5.50;2.93;;;8.10;99.90;;;;;;5035744;28;20427;-61
2021/05/27 07:12:53;;;;;;;4.33;3.03;;;8.10;99.90;;;;;;5016298;28;20286;-60
2021/05/27 07:15:20;;;;;;;5.57;2.87;;;8.10;99.90;;;;;;5016524;28;20449;-59
2021/05/27 07:17:47;;;;;;;4.27;2.97;;;8.10;99.90;;;;;;5033692;28;20956;-59
2021/05/27 07:20:13;;;;;;;2.53;2.00;;;8.10;99.90;;;;;;5037287;28;20441;-62
2021/05/27 07:22:39;;;;;;;3.50;2.53;;;8.10;99.90;;;;;;5044310;28;20468;-60
2021/05/27 07:25:06;;;;;;;2.40;2.03;;;8.10;99.90;;;;;;5039554;28;20433;-60
2021/05/27 07:27:33;;;;;;;4.17;2.50;;;8.10;99.90;;;;;;5040359;28;20172;-60
2021/05/27 07:29:59;;;;;;;4.07;2.50;;;8.10;99.90;;;;;;5034259;28;20558;-61
2021/05/27 07:32:25;;;;;;;2.53;1.87;;;8.10;99.90;;;;;;5041660;28;20457;-60
2021/05/27 07:34:50;;;;;;;3.90;2.10;;;8.00;99.90;;;;;;5021946;28;20433;-60
2021/05/27 07:37:16;;;;;;;3.80;2.20;;;8.00;99.90;;;;;;5036670;28;20179;-60
2021/05/27 07:39:42;;;;;;;3.30;2.93;;;8.00;99.90;;;;;;5022285;28;20176;-59
2021/05/27 07:42:08;;;;;;;6.70;2.43;;;8.10;99.90;;;;;;5023928;28;20302;-61
2021/05/27 07:44:34;;;;;;;2.73;2.43;;;8.10;99.90;;;;;;5036368;28;20430;-60
2021/05/27 07:47:00;;;;;;;5.37;3.00;;;8.20;99.90;;;;;;5036509;28;20958;-59
2021/05/27 07:49:27;;;;;;;7.43;3.40;;;8.20;99.90;;;;;;5034550;28;20442;-60
2021/05/27 07:51:56;;;;;;;3.80;3.00;;;8.20;99.90;;;;;;5019952;28;20223;-61
2021/05/27 07:54:25;;;;;;;4.20;3.13;;;8.20;99.90;;;;;;5040447;28;20584;-59
2021/05/27 07:56:51;;;;;;;3.50;2.90;;;8.20;99.90;;;;;;5024714;28;20465;-59
2021/05/27 07:59:17;;;;;;;2.83;2.60;;;8.20;99.90;;;;;;5043330;28;20460;-59
2021/05/27 08:01:43;;;;;;;2.90;2.40;;;8.20;99.90;;;;;;5023705;28;20199;-59
2021/05/27 08:04:09;;;;;;;3.43;2.77;;;8.20;99.90;;;;;;5037069;28;20801;-60
2021/05/27 08:06:35;;;;;;;3.20;2.70;;;8.20;99.90;;;;;;5034396;28;20510;-59
2021/05/27 08:09:01;;;;;;;4.13;2.83;;;8.20;99.90;;;;;;5038163;28;20531;-59
2021/05/27 08:11:27;;;;;;;4.30;2.63;;;8.20;99.90;;;;;;5035478;28;20196;-60
2021/05/27 08:13:53;;;;;;;3.43;2.63;;;8.20;99.90;;;;;;5033080;28;20449;-60
2021/05/27 08:16:19;;;;;;;4.47;2.87;;;8.20;99.90;;;;;;5041144;28;21112;-60
2021/05/27 08:18:44;;;;;;;11.23;2.80;;;8.20;99.90;;;;;;5027307;28;20205;-59
2021/05/27 08:21:10;;;;;;;4.90;2.50;;;8.30;99.90;;;;;;5038695;28;20183;-59
2021/05/27 08:23:36;;;;;;;2.40;2.20;;;8.30;99.90;;;;;;5041140;28;20187;-60
2021/05/27 08:26:02;;;;;;;3.87;2.43;;;8.30;99.90;;;;;;5045330;28;20437;-60
2021/05/27 08:28:28;;;;;;;6.77;3.10;;;8.30;99.90;;;;;;5032284;28;20546;-60
2021/05/27 08:30:54;;;;;;;3.27;2.73;;;8.30;99.90;;;;;;5051513;28;20420;-61
2021/05/27 08:33:19;;;;;;;6.23;3.17;;;8.30;99.90;;;;;;5035379;28;20238;-62
2021/05/27 08:35:45;;;;;;;2.47;2.27;;;8.30;99.90;;;;;;5022887;28;20190;-61
2021/05/27 08:38:11;;;;;;;3.47;2.60;;;8.30;99.90;;;;;;5045659;28;20184;-60
2021/05/27 08:40:37;;;;;;;8.03;2.90;;;8.40;99.90;;;;;;5048790;28;20182;-61
2021/05/27 08:43:04;;;;;;;4.30;2.97;;;8.40;99.90;;;;;;5033223;23;20322;-55
2021/05/27 08:45:34;;;;;;;3.43;2.50;;;8.40;99.90;;;;;;5007259;28;20525;-54
2021/05/27 08:47:59;;;;;;;3.60;3.00;;;8.40;99.90;;;;;;5008257;28;20416;-55
2021/05/27 08:50:34;;;;;;;4.90;2.97;;;8.50;99.90;;;;;;5008654;28;20419;-54
2021/05/27 08:53:02;;;;;;;4.20;2.70;;;8.60;99.90;;;;;;5019068;28;20245;-55
2021/05/27 08:55:28;;;;;;;3.57;2.77;;;8.70;99.90;;;;;;5024813;28;20430;-54
2021/05/27 08:57:53;;;;;;;4.87;2.07;;;8.70;99.90;;;;;;5027305;28;20879;-54
2021/05/27 09:00:20;;;;;;;3.10;2.47;;;8.80;99.90;;;;;;5024879;28;20170;-53
2021/05/27 09:02:56;;;;;;;6.07;2.87;;;8.80;99.90;;;;;;5025945;28;20703;-55
2021/05/27 09:05:23;;;;;;;3.30;2.43;;;8.90;99.90;;;;;;5023717;28;20529;-55
2021/05/27 09:07:50;;;;;;;4.60;2.20;;;9.00;99.90;;;;;;5021319;28;20425;-55
2021/05/27 09:10:15;;;;;;;8.23;2.30;;;9.10;99.90;;;;;;5028093;28;20473;-56
2021/05/27 09:12:42;;;;;;;2.67;2.47;;;9.30;99.90;;;;;;5019676;28;20885;-56
2021/05/27 09:15:26;;;;;;;3.40;2.43;;;9.40;99.90;;;;;;5025892;28;20176;-55
2021/05/27 09:17:53;;;;;;;3.40;2.17;;;9.50;99.90;;;;;;5013356;28;20939;-56
2021/05/27 09:20:21;;;;;;;3.67;3.37;;;9.60;99.90;;;;;;5017697;28;20433;-56
2021/05/27 09:23:04;;;;;;;4.50;2.30;;;9.70;99.90;;;;;;5018189;28;21052;-57
2021/05/27 09:25:30;;;;;;;5.30;2.60;;;9.90;99.90;;;;;;5019411;28;20977;-52
2021/05/27 09:27:56;;;;;;;3.40;2.80;;;10.20;99.90;;;;;;5018800;28;20449;-55
2021/05/27 09:30:24;;;;;;;2.87;2.60;;;10.40;99.90;;;;;;5017732;28;20434;-54
2021/05/27 09:32:51;;;;;;;8.83;2.83;;;10.70;99.90;;;;;;5016707;28;21146;-55
2021/05/27 09:35:17;;;;;;;2.13;1.93;;;11.00;99.90;;;;;;5017134;28;20473;-55
2021/05/27 09:38:01;;;;;;;4.80;2.50;;;11.30;99.80;;;;;;5018780;28;20525;-54
2021/05/27 09:40:33;;;;;;;4.53;2.00;;;11.30;99.50;;;;;;5014100;28;20504;-53
2021/05/27 09:42:59;;;;;;;3.83;2.10;;;11.40;97.60;;;;;;5019780;28;20702;-55
2021/05/27 09:45:27;;;;;;;2.40;2.20;;;11.40;99.00;;;;;;5019012;28;20466;-55
2021/05/27 09:47:54;;;;;;;2.90;2.17;;;11.40;98.40;;;;;;5016361;28;20491;-54
2021/05/27 09:50:30;;;;;;;3.30;2.70;;;11.30;97.00;;;;;;5013324;28;20534;-54
2021/05/27 09:53:10;;;;;;;3.10;2.23;;;11.10;96.60;;;;;;5018454;28;20454;-55
2021/05/27 09:55:36;;;;;;;3.70;2.20;;;10.90;98.70;;;;;;5018540;28;20516;-54
2021/05/27 09:58:14;;;;;;;3.20;2.23;;;11.10;98.70;;;;;;5016967;28;20463;-55
2021/05/27 10:00:42;;;;;;;2.63;2.20;;;11.40;99.00;;;;;;5018880;28;20785;-54
2021/05/27 10:03:29;;;;;;;2.20;2.00;;;11.70;96.80;;;;;;5014572;28;20454;-53
2021/05/27 10:05:56;;;;;;;3.77;2.43;;;12.00;94.50;;;;;;5017905;28;20959;-54
2021/05/27 10:08:22;;;;;;;2.80;2.13;;;12.20;95.90;;;;;;5014605;28;20431;-53
2021/05/27 10:10:49;;;;;;;3.33;2.40;;;12.40;94.70;;;;;;5014669;28;20458;-55
2021/05/27 10:13:18;;;;;;;4.40;2.60;;;12.60;95.10;;;;;;5012926;28;20461;-55
2021/05/27 10:15:44;;;;;;;2.27;1.87;;;12.80;93.00;;;;;;5016370;28;20472;-56
2021/05/27 10:18:15;;;;;;;1.90;1.73;;;13.00;91.40;;;;;;5019148;28;20434;-55
2021/05/27 10:20:41;;;;;;;2.57;2.37;;;12.90;81.10;;;;;;5014240;28;20422;-55
2021/05/27 10:23:07;;;;;;;3.10;1.90;;;12.60;87.40;;;;;;5001810;28;20469;-54
2021/05/27 10:25:33;;;;;;;4.13;2.37;;;12.40;90.00;;;;;;5008723;28;20949;-55
2021/05/27 10:28:03;;;;;;;4.10;2.10;;;12.20;90.10;;;;;;5015859;28;20431;-55
2021/05/27 10:30:38;;;;;;;11.03;2.30;;;11.90;88.10;;;;;;5014463;28;20437;-52
2021/05/27 10:33:05;;;;;;;1.80;1.70;;;11.80;90.20;;;;;;5015555;28;20455;-55
2021/05/27 10:35:45;;;;;;;1.80;1.70;;;11.90;91.80;;;;;;4997834;28;21013;-55
2021/05/27 10:38:11;;;;;;;2.30;1.73;;;12.30;90.60;;;;;;5013190;28;20989;-55
2021/05/27 10:40:38;;;;;;;2.87;1.90;;;12.60;87.10;;;;;;5015346;28;20438;-55
2021/05/27 10:43:10;;;;;;;6.43;2.30;;;12.80;87.70;;;;;;5017919;28;20223;-55
2021/05/27 10:45:59;;;;;;;4.87;2.10;;;12.80;84.40;;;;;;5017816;28;20466;-54
2021/05/27 10:48:29;;;;;;;3.60;2.10;;;12.70;83.50;;;;;;5014507;28;20544;-55
2021/05/27 10:51:09;;;;;;;3.10;2.30;;;12.40;85.60;;;;;;5015709;28;20422;-54
2021/05/27 10:56:03;;;;;;;4.60;2.80;;;12.40;91.60;;;;;;5014493;28;20853;-54
2021/05/27 10:58:53;;;;;;;2.27;2.07;;;12.60;90.80;;;;;;5016190;28;20180;-56
2021/05/27 11:01:36;;;;;;;4.93;1.70;;;13.20;90.00;;;;;;5012990;28;20549;-55
2021/05/27 11:04:07;;;;;;;1.87;1.77;;;13.80;84.30;;;;;;5009092;28;20435;-55
2021/05/27 11:06:32;;;;;;;2.60;1.50;;;14.30;72.70;;;;;;4994411;28;20470;-56
2021/05/27 11:09:07;;;;;;;1.90;1.70;;;14.70;69.90;;;;;;5013967;28;20525;-56
2021/05/27 11:11:51;;;;;;;4.60;1.70;;;14.80;65.10;;;;;;5006440;28;20271;-54
2021/05/27 11:14:39;;;;;;;2.10;1.63;;;14.80;63.50;;;;;;5010195;28;20433;-54
2021/05/27 11:17:09;;;;;;;2.73;1.70;;;14.90;56.70;;;;;;5010316;28;20440;-56
2021/05/27 11:20:04;;;;;;;1.83;1.73;;;15.10;56.30;;;;;;5015083;28;20477;-56
2021/05/27 11:25:07;;;;;;;2.10;1.80;;;14.90;60.70;;;;;;5018026;28;20473;-55
2021/05/27 11:27:46;;;;;;;3.13;1.70;;;14.50;66.00;;;;;;5010592;28;20831;-54
2021/05/27 11:30:15;;;;;;;1.97;1.87;;;14.20;69.20;;;;;;5012106;28;20897;-56
2021/05/27 11:32:42;;;;;;;1.67;1.57;;;14.00;75.50;;;;;;5013349;28;20458;-55
2021/05/27 11:35:09;;;;;;;2.53;1.63;;;14.00;71.50;;;;;;5010697;28;20438;-55
2021/05/27 11:37:39;;;;;;;8.13;3.50;;;14.00;71.40;;;;;;4995942;28;20438;-55
2021/05/27 11:40:08;;;;;;;2.70;1.70;;;14.20;74.80;;;;;;5018722;28;20442;-55
2021/05/27 11:42:37;;;;;;;1.60;1.50;;;14.20;66.60;;;;;;5014821;28;20469;-55
2021/05/27 11:45:08;;;;;;;2.57;1.50;;;14.10;66.60;;;;;;4989561;28;21216;-55
2021/05/27 11:47:34;;;;;;;2.87;1.80;;;14.00;64.90;;;;;;5012253;28;20449;-56
2021/05/27 11:50:07;;;;;;;1.60;1.43;;;13.90;61.50;;;;;;5013043;28;21149;-56
2021/05/27 11:52:33;;;;;;;2.30;1.60;;;13.90;65.40;;;;;;5017084;28;20450;-56
2021/05/27 11:55:01;;;;;;;1.80;1.63;;;14.10;64.20;;;;;;5017550;28;20442;-55
2021/05/27 11:57:47;;;;;;;1.80;1.70;;;14.20;66.30;;;;;;5017646;28;20529;-56
2021/05/27 12:00:19;;;;;;;2.13;1.60;;;14.20;66.90;;;;;;5015394;28;20438;-55
2021/05/27 12:02:55;;;;;;;3.13;1.67;;;14.40;62.80;;;;;;5020558;28;20462;-56
2021/05/27 12:05:31;;;;;;;4.27;1.40;;;14.60;63.90;;;;;;5019023;28;20466;-55
2021/05/27 12:08:06;;;;;;;1.90;1.40;;;15.00;62.70;;;;;;5019415;28;20475;-55
2021/05/27 12:10:48;;;;;;;2.87;1.90;;;15.10;57.50;;;;;;5020604;28;20789;-56
2021/05/27 12:13:23;;;;;;;1.80;1.50;;;15.20;59.00;;;;;;5021638;28;21351;-56
2021/05/27 12:15:50;;;;;;;4.37;1.60;;;15.60;60.70;;;;;;5017282;28;20504;-55
2021/05/27 12:18:20;;;;;;;2.40;1.93;;;16.00;58.20;;;;;;5021768;28;21296;-56
2021/05/27 12:20:48;;;;;;;1.90;1.80;;;16.10;55.70;;;;;;5017593;28;21122;-56
2021/05/27 12:23:16;;;;;;;1.73;1.63;;;15.90;55.80;;;;;;5021999;28;20468;-55
2021/05/27 12:25:51;;;;;;;3.17;2.00;;;15.60;56.30;;;;;;5020703;28;20557;-55
2021/05/27 12:28:26;;;;;;;2.90;2.20;;;15.20;57.20;;;;;;5018497;28;20437;-55
2021/05/27 12:30:52;;;;;;;3.93;2.20;;;14.90;60.70;;;;;;5019129;28;20445;-55
2021/05/27 12:33:20;;;;;;;3.43;2.80;;;14.50;60.30;;;;;;5024158;28;20454;-56
2021/05/27 12:35:50;;;;;;;4.57;1.93;;;14.30;61.60;;;;;;4985241;28;20283;-55
2021/05/27 12:38:27;;;;;;;2.90;1.83;;;13.90;63.20;;;;;;5019034;28;20604;-55
2021/05/27 12:41:04;;;;;;;1.70;1.60;;;13.80;65.80;;;;;;5016561;28;20437;-55
2021/05/27 12:43:36;;;;;;;1.80;1.70;;;13.80;68.30;;;;;;4979732;28;1145459;-53
2021/05/27 12:46:07;;;;;;;1.80;1.70;;;14.10;68.60;;;;;;5016518;28;20302;-55
2021/05/27 12:48:45;;;;;;;1.60;1.50;;;14.50;68.80;;;;;;5021211;28;20565;-55
2021/05/27 12:51:11;;;;;;;1.73;1.57;;;14.80;63.80;;;;;;5006352;28;20430;-55
2021/05/27 12:53:39;;;;;;;3.07;1.80;;;14.80;61.60;;;;;;5016768;28;20465;-54
2021/05/27 12:56:20;;;;;;;3.30;1.80;;;14.70;61.20;;;;;;5002733;28;20190;-54
2021/05/27 12:58:52;;;;;;;1.97;1.77;;;14.50;61.90;;;;;;5018242;28;20441;-55
2021/05/27 13:01:30;;;;;;;2.30;1.53;;;14.40;64.50;;;;;;5021546;28;21214;-55
2021/05/27 13:03:56;;;;;;;3.50;1.90;;;14.50;65.40;;;;;;5023137;28;20465;-55
2021/05/27 13:06:27;;;;;;;1.60;1.50;;;14.50;66.80;;;;;;5018337;28;20577;-54
2021/05/27 13:09:03;;;;;;;1.73;1.60;;;14.40;66.20;;;;;;5023578;28;20199;-55